sensor_id;sensor_type;location;lat;lon;timestamp;pressure;altitude;pressure_sealevel;temperature;humidity
77881;BME280;67077;50.298;18.996;2023-12-20T00:01:32;97423.26;;;5.73;92.98
77881;BME280;67077;50.298;18.996;2023-12-20T00:04:00;97423.90;;;5.67;94.88
77881;BME280;67077;50.298;18.996;2023-12-20T00:06:27;97424.59;;;5.61;96.84
77881;BME280;67077;50.298;18.996;2023-12-20T00:08:55;97421.83;;;5.55;99.71
77881;BME280;67077;50.298;18.996;2023-12-20T00:11:23;97417.92;;;5.48;100.00
77881;BME280;67077;50.298;18.996;2023-12-20T00:13:51;97404.11;;;5.41;100.00
77881;BME280;67077;50.298;18.996;2023-12-20T00:16:19;97397.16;;;5.34;100.00
77881;BME280;67077;50.298;18.996;2023-12-20T00:18:47;97396.82;;;5.27;100.00
77881;BME280;67077;50.298;18.996;2023-12-20T00:21:15;97388.53;;;5.23;100.00
77881;BME280;67077;50.298;18.996;2023-12-20T00:23:42;97387.80;;;5.20;100.00
77881;BME280;67077;50.298;18.996;2023-12-20T00:26:10;97382.85;;;5.17;100.00
77881;BME280;67077;50.298;18.996;2023-12-20T00:28:38;97370.85;;;5.13;100.00
77881;BME280;67077;50.298;18.996;2023-12-20T00:31:06;97377.36;;;5.11;100.00
77881;BME280;67077;50.298;18.996;2023-12-20T00:33:34;97393.56;;;5.09;100.00
77881;BME280;67077;50.298;18.996;2023-12-20T00:36:01;97390.05;;;5.08;100.00
77881;BME280;67077;50.298;18.996;2023-12-20T00:38:29;97400.23;;;5.08;100.00
77881;BME280;67077;50.298;18.996;2023-12-20T00:40:57;97379.09;;;5.09;100.00
77881;BME280;67077;50.298;18.996;2023-12-20T00:43:25;97383.09;;;5.10;100.00
77881;BME280;67077;50.298;18.996;2023-12-20T00:45:53;97386.47;;;5.11;100.00
77881;BME280;67077;50.298;18.996;2023-12-20T00:48:21;97383.64;;;5.12;100.00
77881;BME280;67077;50.298;18.996;2023-12-20T00:50:49;97380.13;;;5.15;100.00
77881;BME280;67077;50.298;18.996;2023-12-20T00:53:16;97388.21;;;5.17;100.00
77881;BME280;67077;50.298;18.996;2023-12-20T00:55:45;97382.98;;;5.19;100.00
77881;BME280;67077;50.298;18.996;2023-12-20T00:58:13;97366.84;;;5.21;100.00
77881;BME280;67077;50.298;18.996;2023-12-20T01:00:42;97337.05;;;5.22;100.00
77881;BME280;67077;50.298;18.996;2023-12-20T01:03:11;97341.46;;;5.23;99.00
77881;BME280;67077;50.298;18.996;2023-12-20T01:05:39;97337.74;;;5.24;98.80
77881;BME280;67077;50.298;18.996;2023-12-20T01:08:07;97339.08;;;5.25;97.26
77881;BME280;67077;50.298;18.996;2023-12-20T01:10:34;97322.70;;;5.26;95.32
77881;BME280;67077;50.298;18.996;2023-12-20T01:13:02;97321.13;;;5.27;93.61
77881;BME280;67077;50.298;18.996;2023-12-20T01:15:30;97327.89;;;5.29;91.81
77881;BME280;67077;50.298;18.996;2023-12-20T01:17:58;97341.04;;;5.30;91.61
77881;BME280;67077;50.298;18.996;2023-12-20T01:20:27;97328.14;;;5.31;89.07
77881;BME280;67077;50.298;18.996;2023-12-20T01:22:54;97320.02;;;5.34;85.96
77881;BME280;67077;50.298;18.996;2023-12-20T01:25:22;97298.45;;;5.38;83.44
77881;BME280;67077;50.298;18.996;2023-12-20T01:27:50;97290.85;;;5.43;82.90
77881;BME280;67077;50.298;18.996;2023-12-20T01:30:18;97300.08;;;5.46;83.17
77881;BME280;67077;50.298;18.996;2023-12-20T01:32:45;97298.39;;;5.48;82.63
77881;BME280;67077;50.298;18.996;2023-12-20T01:35:13;97282.09;;;5.50;81.47
77881;BME280;67077;50.298;18.996;2023-12-20T01:37:41;97280.46;;;5.53;80.55
77881;BME280;67077;50.298;18.996;2023-12-20T01:40:09;97285.95;;;5.55;79.07
77881;BME280;67077;50.298;18.996;2023-12-20T01:42:37;97307.22;;;5.58;78.10
77881;BME280;67077;50.298;18.996;2023-12-20T01:45:05;97299.30;;;5.59;77.51
77881;BME280;67077;50.298;18.996;2023-12-20T01:47:33;97295.46;;;5.61;76.28
77881;BME280;67077;50.298;18.996;2023-12-20T01:50:02;97309.44;;;5.63;76.60
77881;BME280;67077;50.298;18.996;2023-12-20T01:52:31;97329.39;;;5.65;75.93
77881;BME280;67077;50.298;18.996;2023-12-20T01:55:01;97312.58;;;5.67;75.05
77881;BME280;67077;50.298;18.996;2023-12-20T01:57:32;97303.52;;;5.69;73.72
77881;BME280;67077;50.298;18.996;2023-12-20T02:00:00;97318.44;;;5.71;74.36
77881;BME280;67077;50.298;18.996;2023-12-20T02:02:28;97302.72;;;5.71;74.16
77881;BME280;67077;50.298;18.996;2023-12-20T02:04:57;97287.88;;;5.71;74.09
77881;BME280;67077;50.298;18.996;2023-12-20T02:07:26;97293.45;;;5.71;74.47
77881;BME280;67077;50.298;18.996;2023-12-20T02:09:55;97297.81;;;5.70;74.35
77881;BME280;67077;50.298;18.996;2023-12-20T02:12:23;97292.87;;;5.70;74.33
77881;BME280;67077;50.298;18.996;2023-12-20T02:14:50;97274.18;;;5.69;74.04
77881;BME280;67077;50.298;18.996;2023-12-20T02:17:18;97268.38;;;5.68;73.27
77881;BME280;67077;50.298;18.996;2023-12-20T02:19:46;97286.92;;;5.67;73.15
77881;BME280;67077;50.298;18.996;2023-12-20T02:22:14;97298.59;;;5.66;72.48
77881;BME280;67077;50.298;18.996;2023-12-20T02:24:42;97282.90;;;5.65;72.48
77881;BME280;67077;50.298;18.996;2023-12-20T02:27:10;97289.17;;;5.64;72.17
77881;BME280;67077;50.298;18.996;2023-12-20T02:29:38;97292.52;;;5.63;72.38
77881;BME280;67077;50.298;18.996;2023-12-20T02:32:05;97286.77;;;5.62;71.98
77881;BME280;67077;50.298;18.996;2023-12-20T02:34:33;97276.08;;;5.60;71.53
77881;BME280;67077;50.298;18.996;2023-12-20T02:37:01;97281.16;;;5.59;71.09
77881;BME280;67077;50.298;18.996;2023-12-20T02:39:30;97291.55;;;5.57;71.28
77881;BME280;67077;50.298;18.996;2023-12-20T02:41:58;97293.91;;;5.54;71.66
77881;BME280;67077;50.298;18.996;2023-12-20T02:44:26;97277.08;;;5.52;71.09
77881;BME280;67077;50.298;18.996;2023-12-20T02:46:53;97272.57;;;5.50;71.71
77881;BME280;67077;50.298;18.996;2023-12-20T02:49:21;97270.22;;;5.47;71.08
77881;BME280;67077;50.298;18.996;2023-12-20T02:51:49;97268.74;;;5.44;72.07
77881;BME280;67077;50.298;18.996;2023-12-20T02:54:17;97265.78;;;5.40;72.58
77881;BME280;67077;50.298;18.996;2023-12-20T02:56:44;97267.44;;;5.37;72.99
77881;BME280;67077;50.298;18.996;2023-12-20T02:59:12;97265.60;;;5.35;73.62
77881;BME280;67077;50.298;18.996;2023-12-20T03:01:44;97268.77;;;5.31;76.14
77881;BME280;67077;50.298;18.996;2023-12-20T03:04:12;97272.99;;;5.26;78.60
77881;BME280;67077;50.298;18.996;2023-12-20T03:06:40;97265.81;;;5.21;81.10
77881;BME280;67077;50.298;18.996;2023-12-20T03:09:08;97268.27;;;5.14;84.12
77881;BME280;67077;50.298;18.996;2023-12-20T03:11:36;97276.05;;;5.05;86.99
77881;BME280;67077;50.298;18.996;2023-12-20T03:14:04;97274.24;;;4.95;88.95
77881;BME280;67077;50.298;18.996;2023-12-20T03:16:31;97277.41;;;4.86;91.98
77881;BME280;67077;50.298;18.996;2023-12-20T03:19:00;97277.98;;;4.77;94.02
77881;BME280;67077;50.298;18.996;2023-12-20T03:21:28;97270.50;;;4.69;95.94
77881;BME280;67077;50.298;18.996;2023-12-20T03:23:56;97268.55;;;4.61;98.73
77881;BME280;67077;50.298;18.996;2023-12-20T03:26:23;97264.23;;;4.53;100.00
77881;BME280;67077;50.298;18.996;2023-12-20T03:28:51;97267.34;;;4.45;100.00
77881;BME280;67077;50.298;18.996;2023-12-20T03:31:19;97268.67;;;4.39;100.00
77881;BME280;67077;50.298;18.996;2023-12-20T03:33:48;97266.64;;;4.33;100.00
77881;BME280;67077;50.298;18.996;2023-12-20T03:36:16;97270.33;;;4.28;100.00
77881;BME280;67077;50.298;18.996;2023-12-20T03:38:44;97264.65;;;4.24;100.00
77881;BME280;67077;50.298;18.996;2023-12-20T03:41:13;97266.41;;;4.18;100.00
77881;BME280;67077;50.298;18.996;2023-12-20T03:43:40;97272.68;;;4.14;100.00
77881;BME280;67077;50.298;18.996;2023-12-20T03:46:09;97267.33;;;4.08;100.00
77881;BME280;67077;50.298;18.996;2023-12-20T03:48:36;97268.32;;;4.04;100.00
77881;BME280;67077;50.298;18.996;2023-12-20T03:51:04;97272.29;;;3.99;100.00
77881;BME280;67077;50.298;18.996;2023-12-20T03:53:32;97272.86;;;3.96;100.00
77881;BME280;67077;50.298;18.996;2023-12-20T03:56:00;97277.41;;;3.94;100.00
77881;BME280;67077;50.298;18.996;2023-12-20T03:58:28;97280.96;;;3.93;100.00
77881;BME280;67077;50.298;18.996;2023-12-20T04:00:55;97283.50;;;3.91;100.00
77881;BME280;67077;50.298;18.996;2023-12-20T04:03:23;97281.18;;;3.88;100.00
77881;BME280;67077;50.298;18.996;2023-12-20T04:05:51;97280.64;;;3.86;100.00
77881;BME280;67077;50.298;18.996;2023-12-20T04:08:19;97277.98;;;3.82;100.00
77881;BME280;67077;50.298;18.996;2023-12-20T04:10:46;97281.59;;;3.77;100.00
77881;BME280;67077;50.298;18.996;2023-12-20T04:13:15;97287.74;;;3.72;100.00
77881;BME280;67077;50.298;18.996;2023-12-20T04:15:42;97288.18;;;3.70;100.00
77881;BME280;67077;50.298;18.996;2023-12-20T04:18:10;97288.21;;;3.69;100.00
77881;BME280;67077;50.298;18.996;2023-12-20T04:20:38;97283.20;;;3.66;100.00
77881;BME280;67077;50.298;18.996;2023-12-20T04:23:06;97286.75;;;3.62;100.00
77881;BME280;67077;50.298;18.996;2023-12-20T04:25:33;97285.41;;;3.56;100.00
77881;BME280;67077;50.298;18.996;2023-12-20T04:28:01;97289.41;;;3.49;100.00
77881;BME280;67077;50.298;18.996;2023-12-20T04:30:30;97288.93;;;3.44;100.00
77881;BME280;67077;50.298;18.996;2023-12-20T04:32:58;97288.55;;;3.43;100.00
77881;BME280;67077;50.298;18.996;2023-12-20T04:35:25;97287.44;;;3.42;100.00
77881;BME280;67077;50.298;18.996;2023-12-20T04:37:53;97282.29;;;3.41;100.00
77881;BME280;67077;50.298;18.996;2023-12-20T04:40:21;97279.63;;;3.37;100.00
77881;BME280;67077;50.298;18.996;2023-12-20T04:42:49;97278.84;;;3.31;100.00
77881;BME280;67077;50.298;18.996;2023-12-20T04:45:16;97269.73;;;3.27;100.00
77881;BME280;67077;50.298;18.996;2023-12-20T04:47:44;97270.59;;;3.27;100.00
77881;BME280;67077;50.298;18.996;2023-12-20T04:50:14;97269.93;;;3.27;100.00
77881;BME280;67077;50.298;18.996;2023-12-20T04:52:42;97271.29;;;3.28;100.00
77881;BME280;67077;50.298;18.996;2023-12-20T04:55:10;97270.29;;;3.26;100.00
77881;BME280;67077;50.298;18.996;2023-12-20T04:57:38;97273.39;;;3.22;100.00
77881;BME280;67077;50.298;18.996;2023-12-20T05:00:06;97269.41;;;3.20;100.00
77881;BME280;67077;50.298;18.996;2023-12-20T05:02:36;97264.18;;;3.19;100.00
77881;BME280;67077;50.298;18.996;2023-12-20T05:05:04;97258.55;;;3.17;100.00
77881;BME280;67077;50.298;18.996;2023-12-20T05:07:32;97256.17;;;3.14;100.00
77881;BME280;67077;50.298;18.996;2023-12-20T05:10:00;97250.17;;;3.12;100.00
77881;BME280;67077;50.298;18.996;2023-12-20T05:12:27;97250.58;;;3.11;100.00
77881;BME280;67077;50.298;18.996;2023-12-20T05:14:55;97253.08;;;3.11;100.00
77881;BME280;67077;50.298;18.996;2023-12-20T05:17:23;97254.27;;;3.12;100.00
77881;BME280;67077;50.298;18.996;2023-12-20T05:19:51;97256.76;;;3.13;100.00
77881;BME280;67077;50.298;18.996;2023-12-20T05:22:19;97255.43;;;3.12;100.00
77881;BME280;67077;50.298;18.996;2023-12-20T05:24:47;97258.23;;;3.12;100.00
77881;BME280;67077;50.298;18.996;2023-12-20T05:27:15;97259.29;;;3.10;100.00
77881;BME280;67077;50.298;18.996;2023-12-20T05:29:43;97261.64;;;3.07;100.00
77881;BME280;67077;50.298;18.996;2023-12-20T05:32:11;97259.11;;;3.03;100.00
77881;BME280;67077;50.298;18.996;2023-12-20T05:34:38;97264.39;;;2.99;100.00
77881;BME280;67077;50.298;18.996;2023-12-20T05:37:06;97266.86;;;2.95;100.00
77881;BME280;67077;50.298;18.996;2023-12-20T05:39:34;97261.71;;;2.92;100.00
77881;BME280;67077;50.298;18.996;2023-12-20T05:42:02;97258.71;;;2.90;100.00
77881;BME280;67077;50.298;18.996;2023-12-20T05:44:29;97256.80;;;2.88;100.00
77881;BME280;67077;50.298;18.996;2023-12-20T05:46:57;97257.58;;;2.88;100.00
77881;BME280;67077;50.298;18.996;2023-12-20T05:49:25;97258.02;;;2.87;100.00
77881;BME280;67077;50.298;18.996;2023-12-20T05:51:53;97252.44;;;2.86;100.00
77881;BME280;67077;50.298;18.996;2023-12-20T05:54:21;97251.98;;;2.86;100.00
77881;BME280;67077;50.298;18.996;2023-12-20T05:56:49;97251.89;;;2.85;100.00
77881;BME280;67077;50.298;18.996;2023-12-20T05:59:18;97248.68;;;2.84;100.00
77881;BME280;67077;50.298;18.996;2023-12-20T06:01:46;97250.45;;;2.84;100.00
77881;BME280;67077;50.298;18.996;2023-12-20T06:04:13;97251.42;;;2.82;100.00
77881;BME280;67077;50.298;18.996;2023-12-20T06:06:42;97255.43;;;2.81;100.00
77881;BME280;67077;50.298;18.996;2023-12-20T06:09:10;97261.29;;;2.80;100.00
77881;BME280;67077;50.298;18.996;2023-12-20T06:11:38;97260.23;;;2.78;100.00
77881;BME280;67077;50.298;18.996;2023-12-20T06:14:06;97261.27;;;2.77;100.00
77881;BME280;67077;50.298;18.996;2023-12-20T06:16:34;97261.77;;;2.76;100.00
77881;BME280;67077;50.298;18.996;2023-12-20T06:19:01;97261.31;;;2.75;100.00
77881;BME280;67077;50.298;18.996;2023-12-20T06:21:29;97257.98;;;2.74;100.00
77881;BME280;67077;50.298;18.996;2023-12-20T06:23:59;97260.27;;;2.74;100.00
77881;BME280;67077;50.298;18.996;2023-12-20T06:26:27;97261.20;;;2.73;100.00
77881;BME280;67077;50.298;18.996;2023-12-20T06:28:55;97265.27;;;2.73;100.00
77881;BME280;67077;50.298;18.996;2023-12-20T06:31:23;97264.47;;;2.74;100.00
77881;BME280;67077;50.298;18.996;2023-12-20T06:33:51;97266.69;;;2.75;100.00
77881;BME280;67077;50.298;18.996;2023-12-20T06:36:25;97269.27;;;2.76;100.00
77881;BME280;67077;50.298;18.996;2023-12-20T06:38:53;97274.86;;;2.75;100.00
77881;BME280;67077;50.298;18.996;2023-12-20T06:41:21;97281.87;;;2.75;100.00
77881;BME280;67077;50.298;18.996;2023-12-20T06:43:49;97281.50;;;2.74;100.00
77881;BME280;67077;50.298;18.996;2023-12-20T06:46:17;97281.80;;;2.75;100.00
77881;BME280;67077;50.298;18.996;2023-12-20T06:48:45;97281.23;;;2.75;100.00
77881;BME280;67077;50.298;18.996;2023-12-20T06:51:15;97283.20;;;2.75;100.00
77881;BME280;67077;50.298;18.996;2023-12-20T06:53:43;97286.37;;;2.75;100.00
77881;BME280;67077;50.298;18.996;2023-12-20T06:56:11;97285.93;;;2.75;100.00
77881;BME280;67077;50.298;18.996;2023-12-20T06:58:41;97286.17;;;2.74;100.00
77881;BME280;67077;50.298;18.996;2023-12-20T07:01:14;97289.05;;;2.74;100.00
77881;BME280;67077;50.298;18.996;2023-12-20T07:03:42;97290.08;;;2.74;100.00
77881;BME280;67077;50.298;18.996;2023-12-20T07:06:10;97295.30;;;2.75;100.00
77881;BME280;67077;50.298;18.996;2023-12-20T07:08:40;97294.23;;;2.75;100.00
77881;BME280;67077;50.298;18.996;2023-12-20T07:11:08;97289.10;;;2.75;100.00
77881;BME280;67077;50.298;18.996;2023-12-20T07:13:35;97290.38;;;2.76;100.00
77881;BME280;67077;50.298;18.996;2023-12-20T07:16:03;97290.10;;;2.77;100.00
77881;BME280;67077;50.298;18.996;2023-12-20T07:18:31;97289.61;;;2.78;100.00
77881;BME280;67077;50.298;18.996;2023-12-20T07:20:59;97292.98;;;2.80;100.00
77881;BME280;67077;50.298;18.996;2023-12-20T07:23:27;97293.83;;;2.81;100.00
77881;BME280;67077;50.298;18.996;2023-12-20T07:25:55;97290.11;;;2.84;100.00
77881;BME280;67077;50.298;18.996;2023-12-20T07:28:22;97289.59;;;2.87;100.00
77881;BME280;67077;50.298;18.996;2023-12-20T07:30:50;97291.13;;;2.88;100.00
77881;BME280;67077;50.298;18.996;2023-12-20T07:33:18;97290.98;;;2.90;100.00
77881;BME280;67077;50.298;18.996;2023-12-20T07:35:46;97292.25;;;2.91;100.00
77881;BME280;67077;50.298;18.996;2023-12-20T07:38:13;97297.38;;;2.91;100.00
77881;BME280;67077;50.298;18.996;2023-12-20T07:40:41;97297.27;;;2.92;100.00
77881;BME280;67077;50.298;18.996;2023-12-20T07:43:09;97303.25;;;2.94;100.00
77881;BME280;67077;50.298;18.996;2023-12-20T07:45:37;97305.39;;;2.96;100.00
77881;BME280;67077;50.298;18.996;2023-12-20T07:48:06;97307.27;;;2.96;100.00
77881;BME280;67077;50.298;18.996;2023-12-20T07:50:35;97309.21;;;2.96;100.00
77881;BME280;67077;50.298;18.996;2023-12-20T07:53:02;97307.19;;;2.95;100.00
77881;BME280;67077;50.298;18.996;2023-12-20T07:55:30;97312.16;;;2.95;100.00
77881;BME280;67077;50.298;18.996;2023-12-20T07:57:59;97309.37;;;2.95;100.00
77881;BME280;67077;50.298;18.996;2023-12-20T08:00:27;97305.27;;;2.97;100.00
77881;BME280;67077;50.298;18.996;2023-12-20T08:02:55;97307.64;;;2.99;100.00
77881;BME280;67077;50.298;18.996;2023-12-20T08:05:23;97303.22;;;3.02;100.00
77881;BME280;67077;50.298;18.996;2023-12-20T08:07:50;97303.70;;;3.05;100.00
77881;BME280;67077;50.298;18.996;2023-12-20T08:10:18;97302.38;;;3.06;100.00
77881;BME280;67077;50.298;18.996;2023-12-20T08:12:47;97303.57;;;3.05;100.00
77881;BME280;67077;50.298;18.996;2023-12-20T08:15:14;97305.62;;;3.04;100.00
77881;BME280;67077;50.298;18.996;2023-12-20T08:17:42;97307.14;;;3.05;100.00
77881;BME280;67077;50.298;18.996;2023-12-20T08:20:10;97303.61;;;3.05;100.00
77881;BME280;67077;50.298;18.996;2023-12-20T08:22:38;97301.71;;;3.04;100.00
77881;BME280;67077;50.298;18.996;2023-12-20T08:25:06;97300.67;;;3.02;100.00
77881;BME280;67077;50.298;18.996;2023-12-20T08:27:43;97300.20;;;3.00;100.00
77881;BME280;67077;50.298;18.996;2023-12-20T08:30:11;97296.86;;;2.98;100.00
77881;BME280;67077;50.298;18.996;2023-12-20T08:32:40;97294.91;;;3.00;100.00
77881;BME280;67077;50.298;18.996;2023-12-20T08:35:07;97298.73;;;3.00;100.00
77881;BME280;67077;50.298;18.996;2023-12-20T08:37:36;97299.89;;;3.01;100.00
77881;BME280;67077;50.298;18.996;2023-12-20T08:40:04;97304.45;;;3.03;100.00
77881;BME280;67077;50.298;18.996;2023-12-20T08:42:33;97303.36;;;3.05;100.00
77881;BME280;67077;50.298;18.996;2023-12-20T08:45:01;97311.77;;;3.06;100.00
77881;BME280;67077;50.298;18.996;2023-12-20T08:47:29;97312.40;;;3.05;100.00
77881;BME280;67077;50.298;18.996;2023-12-20T08:49:56;97314.58;;;3.05;100.00
77881;BME280;67077;50.298;18.996;2023-12-20T08:52:28;97312.06;;;3.04;100.00
77881;BME280;67077;50.298;18.996;2023-12-20T08:54:56;97313.63;;;3.04;100.00
77881;BME280;67077;50.298;18.996;2023-12-20T08:57:24;97312.81;;;3.05;100.00
77881;BME280;67077;50.298;18.996;2023-12-20T08:59:52;97315.20;;;3.07;100.00
77881;BME280;67077;50.298;18.996;2023-12-20T09:02:20;97316.36;;;3.09;100.00
77881;BME280;67077;50.298;18.996;2023-12-20T09:04:48;97313.70;;;3.11;100.00
77881;BME280;67077;50.298;18.996;2023-12-20T09:07:26;97313.39;;;3.12;100.00
77881;BME280;67077;50.298;18.996;2023-12-20T09:09:55;97311.55;;;3.13;100.00
77881;BME280;67077;50.298;18.996;2023-12-20T09:12:22;97311.52;;;3.15;100.00
77881;BME280;67077;50.298;18.996;2023-12-20T09:14:51;97311.65;;;3.15;100.00
77881;BME280;67077;50.298;18.996;2023-12-20T09:17:19;97308.11;;;3.15;100.00
77881;BME280;67077;50.298;18.996;2023-12-20T09:19:48;97303.19;;;3.16;100.00
77881;BME280;67077;50.298;18.996;2023-12-20T09:22:16;97303.02;;;3.16;100.00
77881;BME280;67077;50.298;18.996;2023-12-20T09:24:45;97306.20;;;3.16;100.00
77881;BME280;67077;50.298;18.996;2023-12-20T09:27:13;97303.20;;;3.17;100.00
77881;BME280;67077;50.298;18.996;2023-12-20T09:29:40;97306.34;;;3.19;100.00
77881;BME280;67077;50.298;18.996;2023-12-20T09:32:08;97303.46;;;3.22;100.00
77881;BME280;67077;50.298;18.996;2023-12-20T09:34:36;97296.30;;;3.24;100.00
77881;BME280;67077;50.298;18.996;2023-12-20T09:37:04;97297.28;;;3.23;100.00
77881;BME280;67077;50.298;18.996;2023-12-20T09:39:33;97299.67;;;3.24;100.00
77881;BME280;67077;50.298;18.996;2023-12-20T09:42:03;97295.19;;;3.25;100.00
77881;BME280;67077;50.298;18.996;2023-12-20T09:44:32;97290.22;;;3.26;100.00
77881;BME280;67077;50.298;18.996;2023-12-20T09:47:03;97288.09;;;3.26;100.00
77881;BME280;67077;50.298;18.996;2023-12-20T09:49:32;97290.88;;;3.26;100.00
77881;BME280;67077;50.298;18.996;2023-12-20T09:52:00;97288.95;;;3.27;100.00
77881;BME280;67077;50.298;18.996;2023-12-20T09:54:29;97287.29;;;3.28;100.00
77881;BME280;67077;50.298;18.996;2023-12-20T09:56:58;97282.75;;;3.26;100.00
77881;BME280;67077;50.298;18.996;2023-12-20T09:59:26;97281.48;;;3.25;100.00
77881;BME280;67077;50.298;18.996;2023-12-20T10:01:55;97281.38;;;3.23;100.00
77881;BME280;67077;50.298;18.996;2023-12-20T10:04:24;97282.73;;;3.23;100.00
77881;BME280;67077;50.298;18.996;2023-12-20T10:06:53;97285.23;;;3.23;100.00
77881;BME280;67077;50.298;18.996;2023-12-20T10:09:21;97279.94;;;3.23;100.00
77881;BME280;67077;50.298;18.996;2023-12-20T10:11:48;97280.02;;;3.23;100.00
77881;BME280;67077;50.298;18.996;2023-12-20T10:14:16;97281.14;;;3.24;100.00
77881;BME280;67077;50.298;18.996;2023-12-20T10:16:44;97281.50;;;3.24;100.00
77881;BME280;67077;50.298;18.996;2023-12-20T10:19:12;97282.70;;;3.26;100.00
77881;BME280;67077;50.298;18.996;2023-12-20T10:21:41;97275.48;;;3.26;100.00
77881;BME280;67077;50.298;18.996;2023-12-20T10:24:09;97283.08;;;3.26;100.00
77881;BME280;67077;50.298;18.996;2023-12-20T10:26:37;97281.14;;;3.26;100.00
77881;BME280;67077;50.298;18.996;2023-12-20T10:29:05;97281.72;;;3.25;100.00
77881;BME280;67077;50.298;18.996;2023-12-20T10:31:33;97279.45;;;3.25;100.00
77881;BME280;67077;50.298;18.996;2023-12-20T10:34:02;97281.68;;;3.26;100.00
77881;BME280;67077;50.298;18.996;2023-12-20T10:36:32;97282.34;;;3.26;100.00
77881;BME280;67077;50.298;18.996;2023-12-20T10:39:01;97280.86;;;3.25;100.00
77881;BME280;67077;50.298;18.996;2023-12-20T10:41:31;97280.64;;;3.24;100.00
77881;BME280;67077;50.298;18.996;2023-12-20T10:44:02;97276.66;;;3.25;100.00
77881;BME280;67077;50.298;18.996;2023-12-20T10:46:31;97274.90;;;3.26;100.00
77881;BME280;67077;50.298;18.996;2023-12-20T10:49:02;97275.08;;;3.27;100.00
77881;BME280;67077;50.298;18.996;2023-12-20T10:51:33;97275.12;;;3.28;100.00
77881;BME280;67077;50.298;18.996;2023-12-20T10:54:02;97276.32;;;3.29;100.00
77881;BME280;67077;50.298;18.996;2023-12-20T10:56:32;97276.02;;;3.28;100.00
77881;BME280;67077;50.298;18.996;2023-12-20T10:59:02;97272.08;;;3.28;100.00
77881;BME280;67077;50.298;18.996;2023-12-20T11:01:32;97272.00;;;3.29;100.00
77881;BME280;67077;50.298;18.996;2023-12-20T11:04:06;97272.70;;;3.30;100.00
77881;BME280;67077;50.298;18.996;2023-12-20T11:06:58;97270.66;;;3.31;100.00
77881;BME280;67077;50.298;18.996;2023-12-20T11:09:33;97269.65;;;3.34;100.00
77881;BME280;67077;50.298;18.996;2023-12-20T11:12:12;97263.38;;;3.38;100.00
77881;BME280;67077;50.298;18.996;2023-12-20T11:17:15;97261.55;;;3.43;100.00
77881;BME280;67077;50.298;18.996;2023-12-20T11:22:35;97255.56;;;3.46;100.00
77881;BME280;67077;50.298;18.996;2023-12-20T11:25:05;97253.44;;;3.47;100.00
77881;BME280;67077;50.298;18.996;2023-12-20T11:27:35;97248.10;;;3.49;100.00
77881;BME280;67077;50.298;18.996;2023-12-20T11:30:04;97247.20;;;3.49;100.00
77881;BME280;67077;50.298;18.996;2023-12-20T11:32:40;97244.37;;;3.50;100.00
77881;BME280;67077;50.298;18.996;2023-12-20T11:37:36;97249.71;;;3.53;100.00
77881;BME280;67077;50.298;18.996;2023-12-20T11:40:06;97254.04;;;3.54;100.00
77881;BME280;67077;50.298;18.996;2023-12-20T11:42:39;97256.30;;;3.53;100.00
77881;BME280;67077;50.298;18.996;2023-12-20T11:45:11;97258.38;;;3.52;100.00
77881;BME280;67077;50.298;18.996;2023-12-20T11:47:46;97250.84;;;3.51;100.00
77881;BME280;67077;50.298;18.996;2023-12-20T11:50:14;97254.20;;;3.51;100.00
77881;BME280;67077;50.298;18.996;2023-12-20T11:52:42;97255.67;;;3.49;100.00
77881;BME280;67077;50.298;18.996;2023-12-20T11:55:09;97249.50;;;3.48;100.00
77881;BME280;67077;50.298;18.996;2023-12-20T11:57:38;97254.55;;;3.47;100.00
77881;BME280;67077;50.298;18.996;2023-12-20T12:00:06;97252.86;;;3.46;100.00
77881;BME280;67077;50.298;18.996;2023-12-20T12:02:34;97252.08;;;3.46;100.00
77881;BME280;67077;50.298;18.996;2023-12-20T12:05:04;97251.17;;;3.46;100.00
77881;BME280;67077;50.298;18.996;2023-12-20T12:07:36;97248.75;;;3.47;100.00
77881;BME280;67077;50.298;18.996;2023-12-20T12:10:04;97248.34;;;3.48;100.00
77881;BME280;67077;50.298;18.996;2023-12-20T12:12:32;97237.10;;;3.51;100.00
77881;BME280;67077;50.298;18.996;2023-12-20T12:15:00;97243.48;;;3.56;100.00
77881;BME280;67077;50.298;18.996;2023-12-20T12:17:28;97244.54;;;3.62;100.00
77881;BME280;67077;50.298;18.996;2023-12-20T12:20:04;97244.56;;;3.67;100.00
77881;BME280;67077;50.298;18.996;2023-12-20T12:22:32;97241.32;;;3.71;100.00
77881;BME280;67077;50.298;18.996;2023-12-20T12:25:09;97237.79;;;3.74;100.00
77881;BME280;67077;50.298;18.996;2023-12-20T12:27:42;97242.27;;;3.74;100.00
77881;BME280;67077;50.298;18.996;2023-12-20T12:30:10;97243.14;;;3.75;100.00
77881;BME280;67077;50.298;18.996;2023-12-20T12:32:40;97244.26;;;3.76;100.00
77881;BME280;67077;50.298;18.996;2023-12-20T12:35:08;97238.42;;;3.77;100.00
77881;BME280;67077;50.298;18.996;2023-12-20T12:37:38;97231.88;;;3.76;100.00
77881;BME280;67077;50.298;18.996;2023-12-20T12:40:10;97229.66;;;3.75;100.00
77881;BME280;67077;50.298;18.996;2023-12-20T12:42:40;97233.98;;;3.76;100.00
77881;BME280;67077;50.298;18.996;2023-12-20T12:45:09;97235.67;;;3.78;100.00
77881;BME280;67077;50.298;18.996;2023-12-20T12:47:38;97231.81;;;3.80;100.00
77881;BME280;67077;50.298;18.996;2023-12-20T12:50:06;97232.19;;;3.81;100.00
77881;BME280;67077;50.298;18.996;2023-12-20T12:52:34;97235.56;;;3.81;100.00
77881;BME280;67077;50.298;18.996;2023-12-20T12:55:03;97233.69;;;3.82;100.00
77881;BME280;67077;50.298;18.996;2023-12-20T12:57:33;97229.27;;;3.86;100.00
77881;BME280;67077;50.298;18.996;2023-12-20T13:00:01;97228.42;;;3.88;100.00
77881;BME280;67077;50.298;18.996;2023-12-20T13:02:30;97229.70;;;3.91;100.00
77881;BME280;67077;50.298;18.996;2023-12-20T13:04:58;97229.01;;;3.94;100.00
77881;BME280;67077;50.298;18.996;2023-12-20T13:07:26;97232.67;;;3.96;100.00